Time;durP1;ratioP1;P1;durP2;ratioP2;P2;SDS_P1;SDS_P2;PMS_P1;PMS_P2;Temp;Humidity;BMP_temperature;BMP_pressure;BME280_temperature;BME280_humidity;BME280_pressure;Samples;Min_cycle;Max_cycle;Signal;HPM_P1;HPM_P2
2022/11/19 00:01:22;;;;;;;15.32;7.18;;;6.20;99.90;;;;;;4748827;30;20055;-77
2022/11/19 00:03:49;;;;;;;17.50;8.13;;;6.20;99.90;;;;;;4747548;30;20058;-76
2022/11/19 00:06:24;;;;;;;15.52;8.07;;;6.20;99.90;;;;;;4757145;30;20048;-76
2022/11/19 00:08:52;;;;;;;;;;;6.20;99.90;;;;;;4749081;30;21677;-77
2022/11/19 00:14:14;;;;;;;16.15;7.50;;;6.20;99.90;;;;;;4750233;30;20060;-76
2022/11/19 00:16:42;;;;;;;16.30;7.80;;;6.20;99.90;;;;;;4749132;30;20075;-76
2022/11/19 00:19:10;;;;;;;20.13;8.85;;;6.20;99.90;;;;;;4748672;30;20043;-76
2022/11/19 00:21:37;;;;;;;18.05;9.18;;;6.20;99.90;;;;;;4761396;30;20093;-76
2022/11/19 00:24:05;;;;;;;19.23;9.23;;;6.20;99.90;;;;;;4758146;30;20458;-76
2022/11/19 00:26:32;;;;;;;21.10;11.00;;;6.20;99.90;;;;;;4761452;30;20067;-76
2022/11/19 00:28:59;;;;;;;23.45;10.68;;;6.10;99.90;;;;;;4762139;30;20098;-76
2022/11/19 00:31:26;;;;;;;22.63;10.95;;;6.10;99.90;;;;;;4763216;30;20147;-76
2022/11/19 00:33:54;;;;;;;22.00;9.40;;;6.10;99.90;;;;;;4760446;30;20544;-76
2022/11/19 00:36:21;;;;;;;22.80;9.82;;;6.10;99.90;;;;;;4757767;30;20048;-76
2022/11/19 00:38:49;;;;;;;20.25;9.65;;;6.10;99.90;;;;;;4758803;30;20154;-76
2022/11/19 00:41:16;;;;;;;21.10;10.25;;;6.10;99.90;;;;;;4780906;29;20053;-76
2022/11/19 00:43:45;;;;;;;20.38;10.13;;;6.10;99.90;;;;;;4779214;29;20524;-76
2022/11/19 00:46:30;;;;;;;22.33;9.57;;;6.10;99.90;;;;;;4773144;29;20474;-76
2022/11/19 00:48:58;;;;;;;23.13;10.60;;;6.10;99.90;;;;;;4780504;29;20055;-76
2022/11/19 00:51:28;;;;;;;24.50;10.52;;;6.10;99.90;;;;;;4779406;29;20796;-76
2022/11/19 00:53:56;;;;;;;21.30;10.23;;;6.00;99.90;;;;;;4776747;29;20049;-76
2022/11/19 00:56:25;;;;;;;22.23;10.90;;;6.00;99.90;;;;;;4768080;30;22229;-76
2022/11/19 00:58:53;;;;;;;21.63;10.23;;;5.90;99.90;;;;;;4779103;29;20051;-76
2022/11/19 01:01:22;;;;;;;24.75;11.40;;;5.90;99.90;;;;;;4778467;29;20043;-76
2022/11/19 01:03:50;;;;;;;24.13;10.50;;;5.90;99.90;;;;;;4779506;29;20536;-76
2022/11/19 01:06:19;;;;;;;23.92;11.30;;;5.90;99.90;;;;;;4779821;29;20058;-76
2022/11/19 01:08:48;;;;;;;22.63;10.43;;;5.80;99.90;;;;;;4776657;29;21052;-76
2022/11/19 01:11:18;;;;;;;22.52;10.38;;;5.80;99.90;;;;;;4779800;29;20074;-76
2022/11/19 01:13:45;;;;;;;23.98;10.50;;;5.70;99.90;;;;;;4766673;30;20431;-76
2022/11/19 01:16:15;;;;;;;25.13;11.13;;;5.70;99.90;;;;;;4764437;29;20138;-76
2022/11/19 01:18:45;;;;;;;27.55;10.90;;;5.70;99.90;;;;;;4765324;29;20055;-76
2022/11/19 01:21:13;;;;;;;26.23;11.77;;;5.60;99.90;;;;;;4779779;29;20059;-76
2022/11/19 01:23:41;;;;;;;29.98;12.75;;;5.60;99.90;;;;;;4764121;30;20059;-76
2022/11/19 01:26:09;;;;;;;25.73;11.65;;;5.50;99.90;;;;;;4777446;29;20051;-76
2022/11/19 01:28:37;;;;;;;32.28;12.38;;;5.50;99.90;;;;;;4777217;29;20051;-76
2022/11/19 01:31:15;;;;;;;34.72;13.32;;;5.50;99.90;;;;;;4765809;29;20095;-76
2022/11/19 01:33:43;;;;;;;29.45;12.20;;;5.40;99.90;;;;;;4777428;29;20458;-76
2022/11/19 01:36:19;;;;;;;32.47;12.32;;;5.30;99.90;;;;;;4776797;29;20062;-76
2022/11/19 01:38:49;;;;;;;32.78;12.85;;;5.30;99.90;;;;;;4765646;29;20067;-76
2022/11/19 01:41:18;;;;;;;29.58;11.38;;;5.30;99.90;;;;;;4759649;30;20918;-76
2022/11/19 01:43:50;;;;;;;30.13;12.00;;;5.30;99.90;;;;;;4741295;30;20483;-76
2022/11/19 01:46:20;;;;;;;29.98;12.60;;;5.30;99.90;;;;;;4763058;30;20496;-76
2022/11/19 01:49:07;;;;;;;34.65;12.55;;;5.30;99.90;;;;;;4761418;30;20544;-76
2022/11/19 01:51:50;;;;;;;34.97;12.13;;;5.20;99.90;;;;;;4760122;30;20058;-76
2022/11/19 01:54:30;;;;;;;28.30;11.45;;;5.10;99.90;;;;;;4756811;30;20114;-76
2022/11/19 01:57:02;;;;;;;29.90;11.82;;;5.10;99.90;;;;;;4759762;30;20453;-76
2022/11/19 01:59:30;;;;;;;31.63;11.63;;;5.10;99.90;;;;;;4741084;30;20090;-76
2022/11/19 02:01:57;;;;;;;29.00;11.75;;;5.10;99.90;;;;;;4746771;30;20052;-76
2022/11/19 02:04:25;;;;;;;29.25;10.43;;;5.10;99.90;;;;;;4758510;30;20142;-76
2022/11/19 02:06:53;;;;;;;28.75;11.35;;;5.00;99.90;;;;;;4763106;30;20129;-76
2022/11/19 02:09:21;;;;;;;34.15;12.77;;;5.00;99.90;;;;;;4760229;30;20109;-76
2022/11/19 02:12:11;;;;;;;29.98;12.02;;;5.00;99.90;;;;;;4757733;30;20061;-76
2022/11/19 02:15:07;;;;;;;34.20;11.57;;;4.90;99.90;;;;;;4755896;30;20043;-76
2022/11/19 02:17:49;;;;;;;34.13;12.18;;;4.90;99.90;;;;;;4756071;30;20052;-76
2022/11/19 02:20:41;;;;;;;35.58;13.48;;;4.80;99.90;;;;;;4762299;30;20051;-77
2022/11/19 02:23:29;;;;;;;38.67;13.15;;;4.70;99.90;;;;;;4755363;30;20055;-77
2022/11/19 02:26:11;;;;;;;35.15;11.55;;;4.70;99.90;;;;;;4757219;30;20048;-77
2022/11/19 02:29:26;;;;;;;31.73;10.60;;;4.70;99.90;;;;;;4757492;30;20110;-76
2022/11/19 02:32:02;;;;;;;36.53;12.18;;;4.70;99.90;;;;;;4755299;30;20417;-76
2022/11/19 02:34:57;;;;;;;39.53;12.70;;;4.60;99.90;;;;;;4747427;30;20058;-77
2022/11/19 02:37:43;;;;;;;43.15;13.55;;;4.70;99.90;;;;;;4760226;30;20055;-77
2022/11/19 02:40:25;;;;;;;43.55;12.43;;;4.60;99.90;;;;;;4749650;30;20055;-77
2022/11/19 02:43:03;;;;;;;33.47;12.43;;;4.60;99.90;;;;;;4761543;30;20050;-76
2022/11/19 02:45:40;;;;;;;39.13;12.40;;;4.50;99.90;;;;;;4761997;30;20082;-77
2022/11/19 02:48:13;;;;;;;43.17;15.80;;;4.50;99.90;;;;;;4747033;30;20152;-77
2022/11/19 02:50:47;;;;;;;45.65;15.27;;;4.40;99.90;;;;;;4761996;30;20063;-77
2022/11/19 02:53:15;;;;;;;45.90;15.57;;;4.40;99.90;;;;;;4759307;30;20090;-77
2022/11/19 02:56:09;;;;;;;46.83;15.27;;;4.30;99.90;;;;;;4760261;30;20444;-77
2022/11/19 03:07:07;;;;;;;29.80;11.68;;;4.10;99.90;;;;;;4762070;30;20066;-77
2022/11/19 03:09:45;;;;;;;35.63;12.52;;;4.00;99.90;;;;;;4760840;30;20142;-77
2022/11/19 03:12:41;;;;;;;30.77;12.05;;;4.00;99.90;;;;;;4756601;30;20056;-77
2022/11/19 03:18:34;;;;;;;30.33;11.55;;;4.00;99.90;;;;;;4761648;30;20048;-77
2022/11/19 03:21:06;;;;;;;;;;;4.10;99.90;;;;;;4733972;30;20062;-76
2022/11/19 03:23:38;;;;;;;39.63;11.70;;;4.10;99.90;;;;;;4759468;30;20394;-76
2022/11/19 03:26:30;;;;;;;39.30;14.15;;;4.20;99.90;;;;;;4741947;30;22343;-76
2022/11/19 03:29:01;;;;;;;38.90;14.15;;;4.10;99.90;;;;;;4751259;30;20560;-76
2022/11/19 03:31:30;;;;;;;36.42;14.93;;;4.00;99.90;;;;;;4750548;30;20059;-77
2022/11/19 03:34:07;;;;;;;38.08;14.10;;;3.80;99.90;;;;;;4761493;30;20070;-77
2022/11/19 03:36:40;;;;;;;34.67;13.32;;;3.70;99.90;;;;;;4752822;30;20086;-77
2022/11/19 03:39:11;;;;;;;42.55;16.48;;;3.80;99.90;;;;;;4761654;30;20056;-77
2022/11/19 03:41:41;;;;;;;39.72;15.38;;;3.70;99.90;;;;;;4751759;30;20048;-77
2022/11/19 03:44:14;;;;;;;36.47;14.10;;;3.70;99.90;;;;;;4760501;30;20389;-77
2022/11/19 03:46:43;;;;;;;36.42;13.55;;;3.80;99.90;;;;;;4762991;30;20523;-77
2022/11/19 03:49:12;;;;;;;37.28;13.32;;;4.10;99.90;;;;;;4762884;30;20048;-77
2022/11/19 03:51:48;;;;;;;36.63;12.88;;;3.90;99.90;;;;;;4760191;30;20082;-76
2022/11/19 03:54:16;;;;;;;36.28;13.52;;;4.00;99.90;;;;;;4761182;30;20052;-76
2022/11/19 03:56:45;;;;;;;43.08;15.38;;;4.00;99.90;;;;;;4762507;30;20102;-77
2022/11/19 03:59:12;;;;;;;38.95;14.13;;;4.00;99.90;;;;;;4758589;30;20081;-77
2022/11/19 04:01:39;;;;;;;38.03;13.82;;;4.00;99.90;;;;;;4749921;30;20051;-76
2022/11/19 04:06:53;;;;;;;43.80;16.67;;;4.00;99.90;;;;;;4761484;30;20509;-77
2022/11/19 04:09:20;;;;;;;39.10;14.38;;;4.00;99.90;;;;;;4758238;30;20114;-76
2022/11/19 04:11:47;;;;;;;36.30;13.50;;;3.80;99.90;;;;;;4760594;30;20055;-76
2022/11/19 04:14:13;;;;;;;37.90;15.30;;;4.30;99.90;;;;;;4765650;30;20042;-76
2022/11/19 04:16:40;;;;;;;38.85;14.88;;;3.80;99.90;;;;;;4760711;30;20077;-76
2022/11/19 04:19:07;;;;;;;52.40;19.38;;;3.90;99.90;;;;;;4745963;30;20078;-76
2022/11/19 04:21:34;;;;;;;54.75;19.65;;;3.90;99.90;;;;;;4759530;30;20048;-76
2022/11/19 04:24:01;;;;;;;58.40;19.33;;;3.90;99.90;;;;;;4760621;30;20136;-76
2022/11/19 04:26:28;;;;;;;56.17;21.20;;;4.20;99.90;;;;;;4764897;29;20052;-76
2022/11/19 04:28:55;;;;;;;63.45;21.60;;;4.10;99.90;;;;;;4751733;30;20695;-76
2022/11/19 04:31:22;;;;;;;55.72;19.20;;;4.10;99.90;;;;;;4748247;30;20117;-76
2022/11/19 04:33:49;;;;;;;52.92;19.38;;;4.30;99.90;;;;;;4751030;30;20516;-76
2022/11/19 04:36:16;;;;;;;54.25;19.35;;;4.20;99.90;;;;;;4763081;30;20386;-76
2022/11/19 04:38:43;;;;;;;37.45;14.60;;;4.10;99.90;;;;;;4752503;30;20056;-76
2022/11/19 04:41:11;;;;;;;38.25;15.07;;;4.30;99.90;;;;;;4764759;30;20146;-76
2022/11/19 04:43:38;;;;;;;40.42;14.00;;;4.00;99.90;;;;;;4766045;30;20048;-76
2022/11/19 04:46:05;;;;;;;41.10;14.82;;;4.00;99.90;;;;;;4776077;29;20623;-76
2022/11/19 04:48:32;;;;;;;38.00;14.10;;;4.10;99.90;;;;;;4761521;30;20122;-76
2022/11/19 04:50:59;;;;;;;41.92;15.30;;;3.90;99.90;;;;;;4760857;30;20056;-76
2022/11/19 04:53:26;;;;;;;37.28;13.50;;;3.90;99.90;;;;;;4762718;30;20110;-76
2022/11/19 04:55:53;;;;;;;38.10;13.02;;;3.90;99.90;;;;;;4762022;30;20043;-76
2022/11/19 04:58:20;;;;;;;45.95;14.95;;;3.90;99.90;;;;;;4762673;30;20074;-76
2022/11/19 05:00:47;;;;;;;44.40;15.43;;;3.80;99.90;;;;;;4761831;30;20466;-76
2022/11/19 05:03:14;;;;;;;41.78;15.68;;;3.90;99.90;;;;;;4772042;30;20307;-77
2022/11/19 05:05:43;;;;;;;37.10;14.63;;;3.80;99.90;;;;;;4758880;30;20052;-76
2022/11/19 05:08:10;;;;;;;41.97;16.15;;;3.70;99.90;;;;;;4757817;30;20047;-76
2022/11/19 05:10:37;;;;;;;33.95;13.25;;;3.60;99.90;;;;;;4774974;29;20071;-76
2022/11/19 05:13:04;;;;;;;41.08;14.05;;;3.60;99.90;;;;;;4771751;29;20055;-76
2022/11/19 05:15:30;;;;;;;37.47;13.98;;;3.50;99.90;;;;;;4770670;29;20101;-76
2022/11/19 05:17:57;;;;;;;43.20;15.20;;;3.50;99.90;;;;;;4755084;30;20131;-76
2022/11/19 05:20:24;;;;;;;41.20;13.90;;;3.60;99.90;;;;;;4774982;29;20390;-76
2022/11/19 05:22:51;;;;;;;41.25;14.93;;;3.40;99.90;;;;;;4773130;29;20070;-76
2022/11/19 05:25:19;;;;;;;38.65;13.80;;;3.50;99.90;;;;;;4763836;29;20125;-77
2022/11/19 05:27:46;;;;;;;36.95;12.85;;;3.40;99.90;;;;;;4774520;29;20408;-77
2022/11/19 05:30:14;;;;;;;36.22;13.05;;;3.40;99.90;;;;;;4762419;30;20245;-77
2022/11/19 05:32:40;;;;;;;33.80;12.48;;;3.40;99.90;;;;;;4775715;29;20062;-76
2022/11/19 05:35:08;;;;;;;35.60;13.07;;;3.40;99.90;;;;;;4764362;30;20044;-76
2022/11/19 05:37:35;;;;;;;39.83;13.15;;;3.30;99.90;;;;;;4763405;30;20063;-76
2022/11/19 05:40:02;;;;;;;39.80;13.70;;;3.30;99.90;;;;;;4780427;29;20097;-76
2022/11/19 05:42:29;;;;;;;36.17;13.63;;;3.50;99.90;;;;;;4781643;29;20055;-76
2022/11/19 05:44:56;;;;;;;39.17;14.13;;;3.60;99.90;;;;;;4766588;29;20123;-76
2022/11/19 05:47:23;;;;;;;50.03;14.65;;;3.60;99.90;;;;;;4763073;29;20054;-76
2022/11/19 05:49:50;;;;;;;42.75;15.07;;;3.70;99.90;;;;;;4776361;29;20152;-76
2022/11/19 05:52:17;;;;;;;38.97;14.27;;;3.80;99.90;;;;;;4778639;29;20048;-76
2022/11/19 05:54:44;;;;;;;43.22;15.60;;;3.60;99.90;;;;;;4779704;29;20768;-76
2022/11/19 05:57:12;;;;;;;43.55;15.30;;;3.60;99.90;;;;;;4778369;29;20054;-76
2022/11/19 05:59:39;;;;;;;36.05;14.05;;;3.60;99.90;;;;;;4767843;30;20075;-76
2022/11/19 06:02:10;;;;;;;46.83;15.07;;;3.60;99.90;;;;;;4765871;29;20126;-76
2022/11/19 06:04:37;;;;;;;50.42;15.73;;;3.60;99.90;;;;;;4774100;29;20096;-76
2022/11/19 06:07:04;;;;;;;47.00;16.05;;;3.60;99.90;;;;;;4766816;29;20060;-76
2022/11/19 06:09:31;;;;;;;41.53;15.43;;;3.60;99.90;;;;;;4763916;30;20120;-76
2022/11/19 06:11:58;;;;;;;36.75;13.85;;;3.50;99.90;;;;;;4778468;29;20051;-76
2022/11/19 06:14:26;;;;;;;35.35;13.82;;;3.50;99.90;;;;;;4779384;29;20081;-76
2022/11/19 06:16:56;;;;;;;42.10;16.60;;;3.50;99.90;;;;;;4779107;29;20047;-76
2022/11/19 06:19:24;;;;;;;40.45;15.25;;;3.50;99.90;;;;;;4767134;29;20043;-76
2022/11/19 06:21:51;;;;;;;41.25;16.88;;;3.50;99.90;;;;;;4777441;29;20047;-76
2022/11/19 06:24:19;;;;;;;35.25;14.50;;;3.70;99.90;;;;;;4750258;29;20112;-76
2022/11/19 06:26:46;;;;;;;37.10;14.02;;;3.50;99.90;;;;;;4765835;29;20104;-76
2022/11/19 06:29:14;;;;;;;36.22;14.18;;;3.40;99.90;;;;;;4777326;29;20415;-76
2022/11/19 06:31:42;;;;;;;37.10;14.40;;;3.40;99.90;;;;;;4765116;30;20150;-76
2022/11/19 06:34:09;;;;;;;37.53;13.43;;;3.40;99.90;;;;;;4765513;29;20051;-76
2022/11/19 06:36:36;;;;;;;37.95;13.57;;;3.50;99.90;;;;;;4765748;30;20142;-76
2022/11/19 06:39:10;;;;;;;34.40;12.60;;;3.50;99.90;;;;;;4772953;29;20567;-76
2022/11/19 06:41:37;;;;;;;40.20;13.55;;;3.60;99.90;;;;;;4776935;29;20054;-76
2022/11/19 06:44:04;;;;;;;39.13;15.82;;;3.80;99.90;;;;;;4765385;30;20120;-76
2022/11/19 06:46:31;;;;;;;33.10;12.05;;;3.70;99.90;;;;;;4772077;29;20047;-76
2022/11/19 06:48:58;;;;;;;41.28;15.75;;;3.70;99.90;;;;;;4772865;29;20069;-76
2022/11/19 06:51:25;;;;;;;44.33;15.88;;;3.60;99.90;;;;;;4764240;29;20062;-76
2022/11/19 06:53:52;;;;;;;37.05;15.05;;;3.40;99.90;;;;;;4767354;29;20093;-76
2022/11/19 06:56:19;;;;;;;36.38;13.82;;;3.30;99.90;;;;;;4776089;29;20052;-75
2022/11/19 06:58:46;;;;;;;38.45;13.93;;;3.30;99.90;;;;;;4774060;29;20051;-76
2022/11/19 07:01:14;;;;;;;35.33;12.20;;;3.40;99.90;;;;;;4761956;29;20058;-77
2022/11/19 07:03:41;;;;;;;39.72;14.43;;;3.50;99.90;;;;;;4784956;29;20071;-78
2022/11/19 07:06:08;;;;;;;37.03;13.90;;;3.60;99.90;;;;;;4780017;30;20515;-77
2022/11/19 07:08:36;;;;;;;42.25;13.98;;;3.70;99.90;;;;;;4770169;30;20047;-78
2022/11/19 07:11:24;;;;;;;34.65;13.50;;;3.80;99.90;;;;;;4772062;29;20060;-77
2022/11/19 07:13:55;;;;;;;42.35;16.83;;;3.80;99.90;;;;;;4783590;29;20126;-77
2022/11/19 07:16:29;;;;;;;40.38;14.82;;;3.70;99.90;;;;;;4785910;29;20039;-77
2022/11/19 07:18:58;;;;;;;40.88;14.52;;;3.80;99.90;;;;;;4783681;29;20516;-78
2022/11/19 07:21:25;;;;;;;45.22;16.48;;;3.80;99.90;;;;;;4769677;30;20051;-78
2022/11/19 07:23:53;;;;;;;33.65;13.90;;;3.80;99.90;;;;;;4775326;29;20055;-77
2022/11/19 07:26:21;;;;;;;37.53;13.43;;;4.50;99.90;;;;;;4783049;29;20070;-77
2022/11/19 07:28:48;;;;;;;35.53;13.30;;;3.80;99.90;;;;;;4770229;29;20412;-77
2022/11/19 07:31:15;;;;;;;38.28;15.57;;;3.80;99.90;;;;;;4778878;29;20047;-77
2022/11/19 07:33:43;;;;;;;40.15;15.77;;;4.10;99.90;;;;;;4777120;29;20047;-77
2022/11/19 07:36:11;;;;;;;41.25;16.40;;;5.10;99.90;;;;;;4769845;30;20381;-77
2022/11/19 07:38:45;;;;;;;42.63;15.13;;;4.50;99.90;;;;;;4777251;29;20052;-77
2022/11/19 07:43:58;;;;;;;36.28;14.80;;;3.90;99.90;;;;;;4764527;30;20052;-78
2022/11/19 07:46:25;;;;;;;36.83;15.25;;;4.00;99.90;;;;;;4763192;30;20052;-77
2022/11/19 07:48:54;;;;;;;36.10;13.55;;;4.00;99.90;;;;;;4759059;30;20056;-78
2022/11/19 07:51:22;;;;;;;43.15;16.45;;;4.10;99.90;;;;;;4765181;30;20065;-78
2022/11/19 07:53:50;;;;;;;44.45;17.50;;;4.20;99.90;;;;;;4754193;30;20051;-78
2022/11/19 07:56:21;;;;;;;34.00;13.05;;;4.20;99.90;;;;;;4763806;30;20055;-78
2022/11/19 07:58:48;;;;;;;49.80;17.80;;;4.80;99.90;;;;;;4771725;30;20511;-77
2022/11/19 08:01:19;;;;;;;47.75;21.70;;;4.30;99.90;;;;;;4763080;30;20067;-78
2022/11/19 08:03:47;;;;;;;52.03;20.67;;;4.30;99.90;;;;;;4751329;30;20133;-78
2022/11/19 08:06:23;;;;;;;61.35;26.02;;;4.70;99.90;;;;;;4750481;30;20064;-78
2022/11/19 08:08:51;;;;;;;53.55;19.55;;;4.30;99.90;;;;;;4766023;29;20127;-78
2022/11/19 08:11:18;;;;;;;161.75;53.75;;;4.40;99.90;;;;;;4752224;30;20551;-78
2022/11/19 08:13:45;;;;;;;84.75;30.75;;;4.40;99.90;;;;;;4751956;30;20094;-78
2022/11/19 08:19:08;;;;;;;44.72;17.58;;;4.40;99.90;;;;;;4768495;30;20050;-78
2022/11/19 08:21:39;;;;;;;39.13;14.48;;;4.40;99.90;;;;;;4759457;30;20059;-78
2022/11/19 08:24:07;;;;;;;43.08;16.60;;;4.50;99.90;;;;;;4765658;30;20497;-78
2022/11/19 08:26:34;;;;;;;45.05;16.60;;;4.70;99.90;;;;;;4755291;30;20056;-78
2022/11/19 08:29:01;;;;;;;37.10;14.48;;;4.80;99.90;;;;;;4761939;30;20067;-77
2022/11/19 08:31:28;;;;;;;35.80;13.57;;;5.00;99.90;;;;;;4760745;30;20040;-77
2022/11/19 08:33:55;;;;;;;35.80;14.32;;;4.90;99.90;;;;;;4762121;30;20052;-77
2022/11/19 08:36:22;;;;;;;37.10;13.50;;;4.80;99.90;;;;;;4753537;30;20461;-78
2022/11/19 08:38:50;;;;;;;35.28;13.20;;;5.00;99.90;;;;;;4752843;30;20099;-78
2022/11/19 08:44:02;;;;;;;36.28;12.98;;;4.70;99.90;;;;;;4781694;29;20503;-78
2022/11/19 08:46:29;;;;;;;33.58;13.15;;;4.90;99.90;;;;;;4773011;29;20055;-78
2022/11/19 08:48:57;;;;;;;34.80;13.45;;;5.00;99.90;;;;;;4792704;29;20081;-78
2022/11/19 08:51:25;;;;;;;35.63;13.07;;;4.90;99.90;;;;;;4783355;29;21869;-78
2022/11/19 08:53:52;;;;;;;31.85;12.38;;;4.90;99.90;;;;;;4778027;29;20150;-78
2022/11/19 08:56:20;;;;;;;32.45;12.77;;;5.00;99.90;;;;;;4767398;30;20047;-78
2022/11/19 08:58:47;;;;;;;38.08;15.68;;;5.20;99.90;;;;;;4793839;29;20073;-78
2022/11/19 09:04:32;;;;;;;34.85;13.77;;;5.10;99.90;;;;;;4819934;24;20340;-77
2022/11/19 09:07:01;;;;;;;34.83;13.60;;;5.10;99.90;;;;;;4754334;30;20090;-77
2022/11/19 09:09:28;;;;;;;33.67;14.50;;;5.00;99.90;;;;;;4766030;30;20463;-77
2022/11/19 09:11:59;;;;;;;38.35;15.00;;;5.20;99.90;;;;;;4762145;30;20505;-78
2022/11/19 09:14:28;;;;;;;37.90;14.43;;;4.40;99.90;;;;;;4759444;30;20048;-77
2022/11/19 09:16:55;;;;;;;31.95;12.07;;;5.30;99.90;;;;;;4930169;24;20035;-78
2022/11/19 09:19:23;;;;;;;31.85;13.30;;;5.30;99.90;;;;;;4793915;29;20053;-77
2022/11/19 09:21:50;;;;;;;30.63;12.10;;;4.90;99.90;;;;;;4808306;29;20046;-77
2022/11/19 09:24:18;;;;;;;28.70;11.82;;;6.60;99.90;;;;;;4790047;29;20054;-77
2022/11/19 09:26:46;;;;;;;33.72;12.20;;;5.80;99.90;;;;;;4802218;29;20047;-78
2022/11/19 09:29:20;;;;;;;33.92;12.88;;;5.60;99.90;;;;;;5368916;24;20658;-78
2022/11/19 09:31:50;;;;;;;36.25;14.98;;;5.90;98.30;;;;;;4817332;29;20082;-78
2022/11/19 09:34:21;;;;;;;33.83;13.65;;;5.70;99.60;;;;;;4802705;29;20043;-78
2022/11/19 09:40:07;;;;;;;34.65;12.00;;;5.70;96.60;;;;;;5352282;24;20068;-79
2022/11/19 09:43:12;;;;;;;35.88;14.20;;;5.80;97.20;;;;;;4770436;30;20051;-79
2022/11/19 09:46:28;;;;;;;32.05;12.82;;;6.00;98.60;;;;;;4755917;30;20488;-78
2022/11/19 09:48:58;;;;;;;;;;;6.00;97.80;;;;;;4783459;29;20052;-78
2022/11/19 09:51:31;;;;;;;31.92;13.18;;;6.10;98.70;;;;;;4767814;30;19925;-78
2022/11/19 09:54:11;;;;;;;30.92;11.18;;;6.10;97.60;;;;;;4772897;30;20061;-78
2022/11/19 09:56:41;;;;;;;31.95;14.00;;;6.20;98.00;;;;;;4762765;30;20056;-78
2022/11/19 09:59:33;;;;;;;31.15;11.95;;;6.10;96.40;;;;;;4790008;30;20733;-78
2022/11/19 10:02:12;;;;;;;32.50;13.95;;;6.10;96.10;;;;;;4768032;30;20076;-79
2022/11/19 10:07:46;;;;;;;32.47;13.10;;;5.80;95.80;;;;;;4908624;24;20088;-78
2022/11/19 10:10:41;;;;;;;31.30;14.32;;;5.90;97.20;;;;;;4749773;30;20044;-78
2022/11/19 10:13:14;;;;;;;30.77;12.50;;;5.80;96.60;;;;;;4938732;24;20056;-78
2022/11/19 10:16:16;;;;;;;34.85;14.30;;;5.70;96.50;;;;;;4799891;29;20038;-78
2022/11/19 10:18:58;;;;;;;34.33;13.27;;;5.70;97.80;;;;;;4776857;29;20065;-78
2022/11/19 10:21:40;;;;;;;33.28;14.23;;;5.80;97.50;;;;;;4820193;24;20135;-78
2022/11/19 10:27:28;;;;;;;35.83;12.88;;;5.90;95.90;;;;;;4808437;25;20059;-77
2022/11/19 10:30:01;;;;;;;32.08;13.23;;;6.00;97.10;;;;;;4803204;29;20060;-77
2022/11/19 10:33:07;;;;;;;40.05;15.85;;;5.90;95.40;;;;;;4819236;29;20046;-78
2022/11/19 10:39:26;;;;;;;31.20;12.73;;;5.80;96.40;;;;;;4815061;29;20051;-78
2022/11/19 10:42:21;;;;;;;29.75;11.65;;;5.80;96.90;;;;;;4828930;24;22198;-78
2022/11/19 10:45:08;;;;;;;33.25;13.80;;;5.70;96.10;;;;;;4783699;30;20056;-78
2022/11/19 10:47:43;;;;;;;29.85;12.32;;;5.80;96.30;;;;;;4766170;30;20058;-78
2022/11/19 10:50:23;;;;;;;30.98;12.45;;;5.70;95.00;;;;;;4765170;30;20432;-78
2022/11/19 10:52:56;;;;;;;27.33;11.07;;;5.70;96.00;;;;;;4772450;30;20078;-78
2022/11/19 10:55:32;;;;;;;34.67;13.18;;;5.70;96.60;;;;;;4772876;30;20527;-78
2022/11/19 10:58:27;;;;;;;30.67;12.35;;;5.80;96.40;;;;;;4755621;30;20059;-78
2022/11/19 11:01:00;;;;;;;31.52;12.52;;;5.60;96.90;;;;;;4762157;30;20076;-78
2022/11/19 11:03:41;;;;;;;30.85;11.93;;;6.00;97.70;;;;;;4767828;30;20058;-78
2022/11/19 11:06:09;;;;;;;33.80;12.88;;;6.10;97.00;;;;;;4769068;30;20103;-78
2022/11/19 11:08:47;;;;;;;31.77;13.68;;;6.20;97.60;;;;;;4776656;29;20066;-78
2022/11/19 11:20:25;;;;;;;33.38;13.43;;;6.40;96.00;;;;;;4770928;30;20048;-77
2022/11/19 11:23:03;;;;;;;32.15;13.23;;;6.40;96.90;;;;;;4764984;30;20047;-77
2022/11/19 11:25:30;;;;;;;31.98;13.52;;;6.50;96.20;;;;;;4765174;30;20047;-77
2022/11/19 11:28:15;;;;;;;34.97;15.02;;;6.50;95.30;;;;;;4742976;30;20051;-77
2022/11/19 11:30:54;;;;;;;35.83;14.93;;;6.50;94.90;;;;;;4775827;30;20032;-77
2022/11/19 11:33:25;;;;;;;32.20;12.77;;;6.70;94.20;;;;;;4781394;29;20389;-77
2022/11/19 11:35:54;;;;;;;33.75;14.27;;;7.30;93.30;;;;;;4774411;30;20059;-78
2022/11/19 11:41:05;;;;;;;31.58;13.10;;;6.60;92.70;;;;;;4807157;29;20041;-78
2022/11/19 11:44:16;;;;;;;28.05;12.88;;;6.60;93.10;;;;;;4790011;30;20051;-78
2022/11/19 11:46:57;;;;;;;37.15;18.27;;;6.80;94.50;;;;;;4784232;30;20055;-78
2022/11/19 11:49:40;;;;;;;31.73;13.60;;;7.00;93.70;;;;;;4774456;30;20051;-77
2022/11/19 11:52:10;;;;;;;;;;;6.80;93.20;;;;;;4794628;29;20140;-77
2022/11/19 11:54:52;;;;;;;36.42;16.20;;;6.80;92.60;;;;;;4809551;29;19929;-77
2022/11/19 11:57:23;;;;;;;32.78;13.95;;;6.90;93.60;;;;;;4794388;30;20036;-78
2022/11/19 11:59:51;;;;;;;31.73;12.38;;;6.90;92.30;;;;;;4779557;29;20063;-78
2022/11/19 12:02:28;;;;;;;34.53;12.65;;;6.70;91.50;;;;;;4787436;30;20059;-77
2022/11/19 12:05:00;;;;;;;29.55;13.68;;;6.80;93.10;;;;;;4787542;30;20055;-77
2022/11/19 12:07:46;;;;;;;27.93;12.17;;;6.70;93.20;;;;;;4793086;30;20073;-78
2022/11/19 12:10:39;;;;;;;44.22;18.08;;;6.50;92.30;;;;;;4779571;29;20125;-77
2022/11/19 12:13:25;;;;;;;34.13;13.32;;;6.30;94.00;;;;;;4764049;29;20083;-77
2022/11/19 12:16:37;;;;;;;33.78;14.43;;;6.40;93.90;;;;;;4785539;29;20142;-77
2022/11/19 12:19:19;;;;;;;39.80;20.42;;;6.40;94.00;;;;;;4716630;30;20109;-78
2022/11/19 12:22:26;;;;;;;31.08;12.88;;;6.30;93.40;;;;;;4783663;30;20064;-77
2022/11/19 12:25:13;;;;;;;29.02;12.23;;;6.10;93.40;;;;;;4769876;30;20102;-77
2022/11/19 12:28:13;;;;;;;34.92;13.18;;;6.40;93.70;;;;;;4756537;30;20053;-77
2022/11/19 12:31:03;;;;;;;29.77;12.05;;;6.30;93.20;;;;;;4774315;30;20146;-78
2022/11/19 12:33:40;;;;;;;34.53;13.40;;;6.40;93.70;;;;;;4780075;30;20047;-77
2022/11/19 12:36:18;;;;;;;31.38;13.55;;;6.50;93.40;;;;;;4763145;30;20146;-77
2022/11/19 12:39:02;;;;;;;28.90;11.57;;;6.50;93.40;;;;;;4771664;29;20061;-77
2022/11/19 12:41:49;;;;;;;28.33;11.70;;;6.60;95.30;;;;;;4761803;30;20047;-77
2022/11/19 12:44:29;;;;;;;34.58;11.93;;;6.60;94.50;;;;;;4763751;30;20052;-77
2022/11/19 12:47:34;;;;;;;36.67;15.20;;;6.60;94.70;;;;;;4776536;29;20066;-77
2022/11/19 12:50:14;;;;;;;29.88;12.55;;;6.60;94.60;;;;;;4757748;30;20052;-77
2022/11/19 12:53:15;;;;;;;29.90;13.63;;;6.60;95.00;;;;;;4762849;30;20422;-78
2022/11/19 12:56:00;;;;;;;30.10;11.68;;;6.50;93.10;;;;;;4759574;30;20062;-78
2022/11/19 12:58:41;;;;;;;32.03;14.18;;;6.50;93.50;;;;;;4739952;30;20063;-77
2022/11/19 13:01:13;;;;;;;32.65;14.18;;;6.50;94.10;;;;;;4776957;30;20439;-77
2022/11/19 13:04:03;;;;;;;38.43;25.77;;;6.50;94.60;;;;;;4755648;30;20047;-77
2022/11/19 13:06:43;;;;;;;33.67;13.90;;;6.40;93.50;;;;;;4748312;30;20089;-77
2022/11/19 13:09:41;;;;;;;30.25;13.63;;;6.40;93.70;;;;;;4770636;30;20090;-77
2022/11/19 13:12:13;;;;;;;35.67;13.90;;;6.50;95.00;;;;;;4735454;30;20067;-77
2022/11/19 13:14:54;;;;;;;32.20;12.52;;;6.10;94.80;;;;;;4748764;30;20511;-77
2022/11/19 13:17:28;;;;;;;31.52;13.18;;;6.40;95.30;;;;;;4763445;30;20113;-77
2022/11/19 13:20:00;;;;;;;32.85;13.65;;;6.40;95.70;;;;;;4758010;30;20138;-77
2022/11/19 13:22:41;;;;;;;35.78;15.35;;;6.20;95.50;;;;;;4747151;30;20055;-77
2022/11/19 13:25:27;;;;;;;33.88;14.60;;;6.20;96.70;;;;;;4767619;30;20053;-77
2022/11/19 13:27:56;;;;;;;32.45;13.48;;;6.20;96.80;;;;;;4746837;30;20109;-77
2022/11/19 13:30:25;;;;;;;30.98;13.65;;;6.20;97.60;;;;;;4758418;30;20050;-77
2022/11/19 13:33:14;;;;;;;32.65;14.05;;;6.20;97.20;;;;;;4743660;30;20116;-77
2022/11/19 13:36:02;;;;;;;36.90;14.93;;;6.20;97.40;;;;;;4743362;30;20151;-77
2022/11/19 13:38:50;;;;;;;36.47;15.32;;;6.20;97.60;;;;;;4748736;30;20040;-77
2022/11/19 13:44:50;;;;;;;31.27;14.13;;;6.20;98.40;;;;;;4694684;30;20046;-77
2022/11/19 13:47:55;;;;;;;38.30;15.57;;;6.10;98.60;;;;;;4691144;30;20046;-77
2022/11/19 13:50:39;;;;;;;40.88;17.55;;;6.00;98.80;;;;;;4728837;30;20056;-77
2022/11/19 13:53:15;;;;;;;40.97;16.10;;;5.90;99.20;;;;;;4766016;30;20044;-77
2022/11/19 13:55:43;;;;;;;35.65;14.93;;;5.90;99.10;;;;;;4738485;30;20052;-77
2022/11/19 13:58:18;;;;;;;30.08;13.77;;;5.90;99.20;;;;;;4744336;30;20501;-77
2022/11/19 14:01:11;;;;;;;33.40;13.60;;;5.80;99.30;;;;;;4743685;30;20134;-77
2022/11/19 14:04:12;;;;;;;30.17;13.55;;;5.80;99.70;;;;;;4744118;30;20079;-77
2022/11/19 14:06:56;;;;;;;36.08;13.82;;;5.80;99.90;;;;;;4743618;30;20054;-77
2022/11/19 14:09:52;;;;;;;56.42;26.98;;;5.80;99.90;;;;;;4743076;30;20073;-77